Time;durP1;ratioP1;P1;durP2;ratioP2;P2;SDS_P1;SDS_P2;PMS_P1;PMS_P2;Temp;Humidity;BMP_temperature;BMP_pressure;BME280_temperature;BME280_humidity;BME280_pressure;Samples;Min_cycle;Max_cycle;Signal;HPM_P1;HPM_P2
2021/08/04 00:01:53;;;;;;;3.70;3.20;;;20.20;94.80;;;;;;5071638;28;20442;-51
2021/08/04 00:04:19;;;;;;;7.53;3.30;;;20.20;94.90;;;;;;5071790;28;20449;-51
2021/08/04 00:06:46;;;;;;;4.10;3.20;;;20.20;95.00;;;;;;5071714;28;20480;-50
2021/08/04 00:09:13;;;;;;;3.97;2.90;;;20.20;95.00;;;;;;5071269;28;20438;-52
2021/08/04 00:11:40;;;;;;;3.20;2.90;;;20.20;95.10;;;;;;5071763;28;20567;-52
2021/08/04 00:14:08;;;;;;;3.77;3.40;;;20.20;95.20;;;;;;5071656;28;20438;-52
2021/08/04 00:16:35;;;;;;;4.70;2.97;;;20.10;95.20;;;;;;5071576;28;20430;-51
2021/08/04 00:19:02;;;;;;;4.87;3.43;;;20.10;95.20;;;;;;5071227;28;20434;-51
2021/08/04 00:21:28;;;;;;;6.10;3.50;;;20.10;95.30;;;;;;5071487;28;20549;-52
2021/08/04 00:23:55;;;;;;;3.10;2.80;;;20.00;95.40;;;;;;5071482;28;20437;-52
2021/08/04 00:26:22;;;;;;;3.60;2.70;;;20.00;95.40;;;;;;5071590;28;20430;-51
2021/08/04 00:28:49;;;;;;;4.07;3.20;;;20.00;95.50;;;;;;5071078;28;20473;-50
2021/08/04 00:31:17;;;;;;;5.20;2.77;;;19.90;95.60;;;;;;5071259;28;20569;-51
2021/08/04 00:33:44;;;;;;;7.47;2.70;;;19.90;95.60;;;;;;5071547;28;20440;-51
2021/08/04 00:36:11;;;;;;;5.60;3.43;;;19.90;95.70;;;;;;5053397;28;20446;-51
2021/08/04 00:38:37;;;;;;;4.70;3.83;;;19.90;95.80;;;;;;5053000;28;20454;-51
2021/08/04 00:41:05;;;;;;;4.13;3.73;;;19.90;95.90;;;;;;5071442;28;20446;-51
2021/08/04 00:43:31;;;;;;;3.63;3.23;;;19.90;96.10;;;;;;5057754;28;21057;-51
2021/08/04 00:45:58;;;;;;;3.43;3.13;;;19.90;96.20;;;;;;5071337;28;20530;-51
2021/08/04 00:48:27;;;;;;;4.60;3.30;;;19.80;96.30;;;;;;5052915;28;20834;-51
2021/08/04 00:50:53;;;;;;;3.70;3.30;;;19.80;96.40;;;;;;5072535;28;20495;-51
2021/08/04 00:53:22;;;;;;;5.70;3.67;;;19.70;96.50;;;;;;5057267;28;20461;-51
2021/08/04 00:55:50;;;;;;;6.10;3.53;;;19.70;96.60;;;;;;5075331;28;20442;-51
2021/08/04 00:58:19;;;;;;;4.70;3.20;;;19.70;97.00;;;;;;5056829;28;20475;-51
2021/08/04 01:00:50;;;;;;;4.97;3.60;;;19.70;96.80;;;;;;5074652;28;20461;-50
2021/08/04 01:03:19;;;;;;;4.47;3.30;;;19.60;96.90;;;;;;5057011;28;20492;-50
2021/08/04 01:05:53;;;;;;;3.97;3.50;;;19.60;96.90;;;;;;5057109;28;20973;-50
2021/08/04 01:08:25;;;;;;;2.67;2.47;;;19.60;97.10;;;;;;5074626;28;20509;-50
2021/08/04 01:10:54;;;;;;;4.03;3.67;;;19.50;97.20;;;;;;5057035;28;20489;-50
2021/08/04 01:13:27;;;;;;;3.57;3.10;;;19.60;97.30;;;;;;5056701;28;20540;-52
2021/08/04 01:16:09;;;;;;;3.40;3.10;;;19.50;97.30;;;;;;5074660;28;20455;-51
2021/08/04 01:18:40;;;;;;;3.20;2.90;;;19.50;97.40;;;;;;5056416;28;21015;-50
2021/08/04 01:21:11;;;;;;;3.33;3.00;;;19.50;97.50;;;;;;5056643;28;20468;-50
2021/08/04 01:23:44;;;;;;;3.93;2.87;;;19.50;97.50;;;;;;5056675;28;20965;-51
2021/08/04 01:26:31;;;;;;;3.77;2.83;;;19.40;97.60;;;;;;5074539;28;20433;-51
2021/08/04 01:29:01;;;;;;;4.00;3.40;;;19.40;97.70;;;;;;5056246;28;20484;-50
2021/08/04 01:31:31;;;;;;;3.80;2.87;;;19.40;97.70;;;;;;5074569;28;20488;-51
2021/08/04 01:33:59;;;;;;;3.67;2.80;;;19.30;97.80;;;;;;5074557;28;20444;-51
2021/08/04 01:36:27;;;;;;;3.60;3.30;;;19.30;97.90;;;;;;5056539;28;20443;-51
2021/08/04 01:38:54;;;;;;;4.80;2.80;;;19.40;98.00;;;;;;5056274;28;20510;-51
2021/08/04 01:41:21;;;;;;;3.30;2.77;;;19.30;97.80;;;;;;5056205;28;20469;-51
2021/08/04 01:43:51;;;;;;;4.33;2.53;;;19.30;97.80;;;;;;5074376;28;20854;-51
2021/08/04 01:46:22;;;;;;;4.93;3.10;;;19.30;97.80;;;;;;5056341;28;20544;-51
2021/08/04 01:48:50;;;;;;;3.20;2.57;;;19.30;97.90;;;;;;5073862;28;20947;-51
2021/08/04 01:51:18;;;;;;;3.37;2.67;;;19.30;97.90;;;;;;5056120;28;20472;-51
2021/08/04 01:53:47;;;;;;;3.43;2.60;;;19.30;97.90;;;;;;5056333;28;20457;-51
2021/08/04 01:56:15;;;;;;;2.73;2.20;;;19.20;98.00;;;;;;5056417;28;20444;-51
2021/08/04 01:58:43;;;;;;;3.13;2.70;;;19.20;98.00;;;;;;5057404;28;20543;-50
2021/08/04 02:01:10;;;;;;;3.77;3.00;;;19.20;98.00;;;;;;5055783;28;20523;-50
2021/08/04 02:03:38;;;;;;;3.40;2.50;;;19.20;98.10;;;;;;5054737;28;20456;-50
2021/08/04 02:06:11;;;;;;;4.20;3.43;;;19.20;98.10;;;;;;5073884;28;20461;-51
2021/08/04 02:08:43;;;;;;;3.53;3.20;;;19.30;98.30;;;;;;5073554;28;20989;-51
2021/08/04 02:11:15;;;;;;;3.40;3.10;;;19.20;98.50;;;;;;5056024;28;20468;-50
2021/08/04 02:13:48;;;;;;;4.80;3.63;;;19.20;98.80;;;;;;5073759;28;20429;-51
2021/08/04 02:16:24;;;;;;;5.70;3.40;;;19.20;99.00;;;;;;5055664;28;20445;-51
2021/08/04 02:19:02;;;;;;;4.03;3.63;;;19.20;99.20;;;;;;5073290;28;20439;-51
2021/08/04 02:21:31;;;;;;;3.83;3.40;;;19.10;99.50;;;;;;5055198;28;20563;-51
2021/08/04 02:23:59;;;;;;;4.60;3.60;;;19.10;99.60;;;;;;5054492;28;20453;-51
2021/08/04 02:26:29;;;;;;;5.07;3.50;;;19.10;99.70;;;;;;5055135;28;20511;-51
2021/08/04 02:28:58;;;;;;;3.83;3.30;;;19.00;99.90;;;;;;5055087;28;20951;-51
2021/08/04 02:31:26;;;;;;;4.40;4.00;;;19.00;99.90;;;;;;5073424;28;20457;-52
2021/08/04 02:33:55;;;;;;;5.50;4.50;;;19.00;99.90;;;;;;5073506;28;20505;-52
2021/08/04 02:36:22;;;;;;;4.10;3.70;;;19.00;99.90;;;;;;5073334;28;20430;-52
2021/08/04 02:38:49;;;;;;;5.43;4.00;;;19.00;99.90;;;;;;5073146;28;21004;-52
2021/08/04 02:41:16;;;;;;;4.07;3.67;;;19.00;99.90;;;;;;5055174;28;21004;-51
2021/08/04 02:43:43;;;;;;;4.53;3.40;;;19.00;99.90;;;;;;5073319;28;20967;-50
2021/08/04 02:46:11;;;;;;;6.23;4.00;;;19.00;99.90;;;;;;5055262;28;20456;-51
2021/08/04 02:48:38;;;;;;;4.07;3.67;;;19.00;99.90;;;;;;5072763;28;20512;-52
2021/08/04 02:51:11;;;;;;;4.50;4.10;;;19.00;99.90;;;;;;5055026;28;20999;-52
2021/08/04 02:53:39;;;;;;;4.10;3.70;;;19.00;99.90;;;;;;5073448;28;20792;-52
2021/08/04 02:56:06;;;;;;;4.27;3.50;;;19.00;99.90;;;;;;5073177;28;20925;-51
2021/08/04 02:58:37;;;;;;;4.50;4.10;;;19.10;99.90;;;;;;5054624;28;20446;-52
2021/08/04 03:01:06;;;;;;;4.30;3.90;;;19.10;99.90;;;;;;5054781;28;20481;-52
2021/08/04 03:03:33;;;;;;;3.87;3.40;;;19.10;99.90;;;;;;5072774;28;20798;-52
2021/08/04 03:06:00;;;;;;;6.03;3.77;;;19.10;99.90;;;;;;5054721;28;20503;-52
2021/08/04 03:08:28;;;;;;;3.90;3.60;;;19.10;99.90;;;;;;5072238;28;20473;-51
2021/08/04 03:10:54;;;;;;;3.70;3.40;;;19.10;99.90;;;;;;5073550;28;20453;-52
2021/08/04 03:13:21;;;;;;;4.33;3.93;;;19.10;99.90;;;;;;5072963;28;20485;-52
2021/08/04 03:15:48;;;;;;;5.37;4.67;;;19.10;99.90;;;;;;5072415;28;20429;-54
2021/08/04 03:18:15;;;;;;;4.30;3.90;;;19.10;99.90;;;;;;5072139;28;20429;-52
2021/08/04 03:20:42;;;;;;;4.93;4.43;;;19.10;99.90;;;;;;5072271;28;20915;-52
2021/08/04 03:23:08;;;;;;;7.83;4.40;;;19.10;99.90;;;;;;5072226;28;20448;-52
2021/08/04 03:25:36;;;;;;;5.10;4.40;;;19.10;99.90;;;;;;5072408;28;20444;-53
2021/08/04 03:28:03;;;;;;;4.83;4.00;;;19.10;99.90;;;;;;5072052;28;20779;-52
2021/08/04 03:30:30;;;;;;;5.23;4.33;;;19.10;99.90;;;;;;5072343;28;20456;-52
2021/08/04 03:32:56;;;;;;;6.00;4.40;;;19.10;99.90;;;;;;5072132;28;20443;-53
2021/08/04 03:35:23;;;;;;;5.33;4.60;;;19.10;99.90;;;;;;5072079;28;20879;-53
2021/08/04 03:37:49;;;;;;;4.97;4.27;;;19.10;99.90;;;;;;5054118;28;20441;-52
2021/08/04 03:40:16;;;;;;;4.80;4.40;;;19.10;99.90;;;;;;5071790;28;20463;-52
2021/08/04 03:42:44;;;;;;;4.50;4.07;;;19.10;99.90;;;;;;5071943;28;20432;-51
2021/08/04 03:45:11;;;;;;;6.20;4.47;;;19.10;99.90;;;;;;5072039;28;20429;-51
2021/08/04 03:47:38;;;;;;;7.40;4.63;;;19.10;99.90;;;;;;5071982;28;20465;-56
2021/08/04 03:50:06;;;;;;;5.80;5.23;;;19.10;99.90;;;;;;5071402;28;20472;-52
2021/08/04 03:52:33;;;;;;;6.10;4.73;;;19.00;99.90;;;;;;5072058;28;20434;-52
2021/08/04 03:55:00;;;;;;;5.40;4.77;;;19.00;99.90;;;;;;5071753;28;20868;-52
2021/08/04 03:57:26;;;;;;;7.10;5.27;;;19.00;99.90;;;;;;5072010;28;20445;-52
2021/08/04 03:59:54;;;;;;;6.73;5.37;;;19.00;99.90;;;;;;5071927;28;21000;-53
2021/08/04 04:02:21;;;;;;;7.43;5.07;;;19.00;99.90;;;;;;5071642;28;20436;-53
2021/08/04 04:04:47;;;;;;;7.60;6.20;;;19.00;99.90;;;;;;5071639;28;20804;-53
2021/08/04 04:07:16;;;;;;;5.50;5.00;;;19.00;99.90;;;;;;5071680;28;20437;-51
2021/08/04 04:09:43;;;;;;;4.13;3.73;;;19.00;99.90;;;;;;5071177;28;20484;-52
2021/08/04 04:12:10;;;;;;;7.17;5.10;;;19.00;99.90;;;;;;5071584;28;20944;-53
2021/08/04 04:14:36;;;;;;;6.03;4.77;;;19.00;99.90;;;;;;5071551;28;20966;-52
2021/08/04 04:17:04;;;;;;;6.30;4.67;;;18.90;99.90;;;;;;5071561;28;20441;-51
2021/08/04 04:19:31;;;;;;;5.87;5.27;;;18.90;99.90;;;;;;5071319;28;20436;-53
2021/08/04 04:21:58;;;;;;;5.30;4.60;;;18.90;99.90;;;;;;5071662;28;20464;-53
2021/08/04 04:24:25;;;;;;;5.53;4.93;;;18.90;99.90;;;;;;5071366;28;20444;-53
2021/08/04 04:26:51;;;;;;;5.80;5.20;;;18.80;99.90;;;;;;5074976;28;20523;-52
2021/08/04 04:29:18;;;;;;;5.53;4.77;;;18.90;99.90;;;;;;5075105;28;20476;-52
2021/08/04 04:31:45;;;;;;;6.60;5.60;;;18.90;99.90;;;;;;5075563;28;20435;-52
2021/08/04 04:34:13;;;;;;;5.70;5.10;;;18.90;99.90;;;;;;5075503;28;20440;-52
2021/08/04 04:36:39;;;;;;;8.07;5.70;;;18.80;99.90;;;;;;5075438;28;20528;-52
2021/08/04 04:39:06;;;;;;;7.37;5.50;;;18.80;99.90;;;;;;5075164;28;20432;-51
2021/08/04 04:41:33;;;;;;;7.87;5.73;;;18.80;99.90;;;;;;5075618;28;20465;-52
2021/08/04 04:43:59;;;;;;;6.97;6.27;;;18.90;99.90;;;;;;5075293;28;20455;-51
2021/08/04 04:46:26;;;;;;;6.47;5.87;;;18.80;99.90;;;;;;5075160;28;20444;-52
2021/08/04 04:48:53;;;;;;;8.63;6.83;;;18.80;99.90;;;;;;5074760;28;20475;-52
2021/08/04 04:51:20;;;;;;;6.50;5.90;;;18.80;99.90;;;;;;5075264;28;20450;-51
2021/08/04 04:53:47;;;;;;;8.23;5.57;;;18.80;99.90;;;;;;5074913;28;20456;-51
2021/08/04 04:56:14;;;;;;;6.90;6.20;;;18.90;99.90;;;;;;5075118;28;20439;-52
2021/08/04 04:58:40;;;;;;;6.70;5.20;;;18.90;99.90;;;;;;5074747;28;20442;-52
2021/08/04 05:01:07;;;;;;;6.40;5.80;;;18.90;99.90;;;;;;5086494;22;20511;-54
2021/08/04 05:03:33;;;;;;;6.70;6.10;;;18.90;99.90;;;;;;5053540;28;20429;-54
2021/08/04 05:06:00;;;;;;;5.80;5.20;;;19.00;99.90;;;;;;5053355;28;20800;-54
2021/08/04 05:08:28;;;;;;;8.07;6.20;;;19.00;99.90;;;;;;5052984;28;20928;-53
2021/08/04 05:10:55;;;;;;;8.30;6.30;;;19.00;99.90;;;;;;5053262;28;20455;-53
2021/08/04 05:13:21;;;;;;;7.23;5.70;;;19.00;99.90;;;;;;5053603;28;20441;-55
2021/08/04 05:15:48;;;;;;;6.70;6.00;;;19.00;99.90;;;;;;5053539;28;20431;-54
2021/08/04 05:18:15;;;;;;;9.20;6.10;;;18.90;99.90;;;;;;5053098;28;20441;-54
2021/08/04 05:20:41;;;;;;;9.00;7.03;;;18.90;99.90;;;;;;5053294;28;20758;-53
2021/08/04 05:23:08;;;;;;;8.13;6.67;;;18.90;99.90;;;;;;5053078;28;20461;-55
2021/08/04 05:25:38;;;;;;;8.07;6.70;;;18.90;99.90;;;;;;5053033;28;20448;-53
2021/08/04 05:28:05;;;;;;;7.60;6.80;;;18.90;99.90;;;;;;5052627;28;20851;-56
2021/08/04 05:30:31;;;;;;;7.37;6.70;;;18.90;99.90;;;;;;5052973;28;20480;-54
2021/08/04 05:32:58;;;;;;;7.30;6.30;;;19.00;99.90;;;;;;5052910;28;20441;-55
2021/08/04 05:35:25;;;;;;;21.83;6.80;;;19.00;99.90;;;;;;5053031;28;20467;-53
2021/08/04 05:37:51;;;;;;;6.53;5.97;;;19.10;99.90;;;;;;5053466;28;21000;-53
2021/08/04 05:40:18;;;;;;;7.13;6.20;;;19.10;99.90;;;;;;5052421;28;20457;-55
2021/08/04 05:42:46;;;;;;;6.10;5.50;;;19.30;99.90;;;;;;5052593;28;20442;-54
2021/08/04 05:45:13;;;;;;;7.17;6.57;;;19.30;99.90;;;;;;5052604;28;20965;-54
2021/08/04 05:47:40;;;;;;;8.40;6.33;;;19.50;99.90;;;;;;5052480;28;20530;-54
2021/08/04 05:50:07;;;;;;;7.57;6.87;;;19.50;99.90;;;;;;5051975;28;20481;-54
2021/08/04 05:52:34;;;;;;;7.77;6.43;;;19.60;99.90;;;;;;5052426;28;20438;-53
2021/08/04 05:55:00;;;;;;;7.60;6.03;;;19.70;99.90;;;;;;5052675;28;20577;-55
2021/08/04 05:57:27;;;;;;;7.43;6.30;;;19.80;99.90;;;;;;5052399;28;20914;-55
2021/08/04 05:59:55;;;;;;;8.10;6.50;;;19.80;99.90;;;;;;5052012;28;20457;-54
2021/08/04 06:02:21;;;;;;;7.67;6.97;;;19.90;99.90;;;;;;5052604;28;20438;-54
2021/08/04 06:04:49;;;;;;;7.40;6.60;;;19.90;99.90;;;;;;5052301;28;20443;-54
2021/08/04 06:07:16;;;;;;;9.50;5.80;;;20.00;99.90;;;;;;5052622;28;20447;-55
2021/08/04 06:09:42;;;;;;;12.30;6.40;;;20.10;99.90;;;;;;5052118;28;20474;-54
2021/08/04 06:12:10;;;;;;;7.43;5.80;;;20.10;99.90;;;;;;5052397;28;20445;-54
2021/08/04 06:14:36;;;;;;;6.67;6.07;;;20.20;99.90;;;;;;5052019;28;20491;-54
2021/08/04 06:17:05;;;;;;;6.27;5.30;;;20.20;99.90;;;;;;5051980;28;20570;-55
2021/08/04 06:19:31;;;;;;;8.33;6.33;;;20.30;99.90;;;;;;5051821;28;20942;-54
2021/08/04 06:21:58;;;;;;;5.80;5.17;;;20.30;99.90;;;;;;5051891;28;20459;-54
2021/08/04 06:24:25;;;;;;;7.10;5.67;;;20.40;99.90;;;;;;5051855;28;20931;-55
2021/08/04 06:26:52;;;;;;;6.57;5.93;;;20.40;99.90;;;;;;5052064;28;20527;-55
2021/08/04 06:29:18;;;;;;;6.13;5.03;;;20.50;99.90;;;;;;5051262;28;20492;-54
2021/08/04 06:31:45;;;;;;;6.73;5.90;;;20.60;99.90;;;;;;5051294;28;20461;-56
2021/08/04 06:34:13;;;;;;;6.43;5.90;;;20.70;99.90;;;;;;5051185;28;20520;-55
2021/08/04 06:36:40;;;;;;;5.90;5.30;;;20.70;99.90;;;;;;5051492;28;20467;-55
2021/08/04 06:39:06;;;;;;;7.50;5.40;;;20.80;99.90;;;;;;5051950;28;20430;-55
2021/08/04 06:41:33;;;;;;;5.67;4.57;;;20.90;99.90;;;;;;5051045;28;20490;-54
2021/08/04 06:44:00;;;;;;;5.37;4.87;;;21.00;99.90;;;;;;5051546;28;20436;-54
2021/08/04 06:46:33;;;;;;;5.60;4.77;;;21.10;99.90;;;;;;5051522;28;20493;-54
2021/08/04 06:49:00;;;;;;;5.57;5.00;;;21.10;99.90;;;;;;5050335;28;20476;-54
2021/08/04 06:51:28;;;;;;;8.40;4.80;;;21.10;99.80;;;;;;5051246;28;20461;-54
2021/08/04 06:53:55;;;;;;;6.10;4.70;;;21.20;99.70;;;;;;5051371;28;20428;-55
2021/08/04 06:56:22;;;;;;;8.40;4.40;;;21.20;99.60;;;;;;5051339;28;20432;-54
2021/08/04 06:58:49;;;;;;;4.57;4.17;;;21.30;99.40;;;;;;5051092;28;20439;-54
2021/08/04 07:01:15;;;;;;;5.40;4.73;;;21.30;99.20;;;;;;5051274;28;20480;-54
2021/08/04 07:03:42;;;;;;;6.03;4.57;;;21.40;99.10;;;;;;5050894;28;20437;-55
2021/08/04 07:06:10;;;;;;;6.20;4.80;;;21.30;98.90;;;;;;5051379;28;20442;-54
2021/08/04 07:08:38;;;;;;;6.03;4.13;;;21.30;98.80;;;;;;5050700;28;20492;-54
2021/08/04 07:11:06;;;;;;;7.67;4.33;;;21.30;98.70;;;;;;5050612;28;20449;-54
2021/08/04 07:13:33;;;;;;;5.20;4.53;;;21.30;99.00;;;;;;5051139;28;20472;-55
2021/08/04 07:16:00;;;;;;;6.20;4.90;;;21.30;98.50;;;;;;5050963;28;20436;-54
2021/08/04 07:18:27;;;;;;;4.40;3.97;;;21.30;98.30;;;;;;5050290;28;20447;-54
2021/08/04 07:20:54;;;;;;;7.10;4.47;;;21.30;98.30;;;;;;5050653;28;20452;-54
2021/08/04 07:23:21;;;;;;;5.77;4.53;;;21.30;98.10;;;;;;5050847;28;20818;-55
2021/08/04 07:25:49;;;;;;;5.30;4.37;;;21.40;98.10;;;;;;5050489;28;20456;-55
2021/08/04 07:28:15;;;;;;;8.13;4.70;;;21.40;98.00;;;;;;5032800;28;20452;-55
2021/08/04 07:30:42;;;;;;;6.03;4.10;;;21.50;97.90;;;;;;5050102;28;20768;-54
2021/08/04 07:33:09;;;;;;;7.13;3.60;;;21.60;97.80;;;;;;5050303;28;20455;-55
2021/08/04 07:35:35;;;;;;;4.70;4.10;;;21.60;97.70;;;;;;5050441;28;20438;-54
2021/08/04 07:38:02;;;;;;;5.20;4.70;;;21.70;97.70;;;;;;5050285;28;20438;-55
2021/08/04 07:40:28;;;;;;;5.10;4.30;;;21.70;97.70;;;;;;5050354;28;20448;-54
2021/08/04 07:42:56;;;;;;;5.20;4.23;;;21.70;97.70;;;;;;5050204;28;20443;-54
2021/08/04 07:45:23;;;;;;;6.20;4.20;;;21.80;97.60;;;;;;5050237;28;20440;-54
2021/08/04 07:47:50;;;;;;;7.60;4.40;;;21.90;97.50;;;;;;5032475;28;21042;-54
2021/08/04 07:50:16;;;;;;;4.27;3.87;;;21.90;97.30;;;;;;5050094;28;20501;-52
2021/08/04 07:52:43;;;;;;;4.07;3.67;;;22.10;97.20;;;;;;5050564;28;20430;-55
2021/08/04 07:55:13;;;;;;;5.00;4.00;;;22.10;97.10;;;;;;5050432;28;20883;-53
2021/08/04 07:57:40;;;;;;;7.63;4.87;;;22.20;97.10;;;;;;5050664;28;20433;-53
2021/08/04 08:00:09;;;;;;;6.53;4.50;;;22.30;97.10;;;;;;5049865;28;20476;-54
2021/08/04 08:02:38;;;;;;;9.10;5.23;;;22.40;96.80;;;;;;5050321;28;20446;-53
2021/08/04 08:05:06;;;;;;;4.60;4.20;;;22.40;96.70;;;;;;5050527;28;20942;-56
2021/08/04 08:07:33;;;;;;;4.67;4.27;;;22.50;96.60;;;;;;5050240;28;20440;-54
2021/08/04 08:09:59;;;;;;;4.67;4.13;;;22.50;96.50;;;;;;5049601;28;20471;-55
2021/08/04 08:12:26;;;;;;;4.67;3.67;;;22.60;96.50;;;;;;5049961;28;20445;-53
2021/08/04 08:14:53;;;;;;;3.90;3.60;;;22.70;96.30;;;;;;5050124;28;20435;-55
2021/08/04 08:17:21;;;;;;;5.30;4.80;;;22.80;96.30;;;;;;5050570;28;20452;-56
2021/08/04 08:19:47;;;;;;;4.40;4.00;;;22.80;96.20;;;;;;5049835;28;20446;-56
2021/08/04 08:22:14;;;;;;;6.03;4.80;;;22.80;96.10;;;;;;5050300;28;20520;-55
2021/08/04 08:24:40;;;;;;;4.97;4.20;;;22.80;96.10;;;;;;5049808;28;20468;-54
2021/08/04 08:27:07;;;;;;;5.67;4.33;;;22.80;96.10;;;;;;5049591;28;20431;-55
2021/08/04 08:29:34;;;;;;;9.60;5.00;;;22.80;96.10;;;;;;5049410;28;20482;-54
2021/08/04 08:32:00;;;;;;;8.20;4.60;;;22.80;96.10;;;;;;5049822;28;20774;-55
2021/08/04 08:34:28;;;;;;;4.70;3.37;;;22.90;95.90;;;;;;5049864;28;20435;-55
2021/08/04 08:36:55;;;;;;;4.47;3.20;;;22.90;95.30;;;;;;5049528;28;20959;-54
2021/08/04 08:39:22;;;;;;;4.33;3.23;;;23.00;94.70;;;;;;5049717;28;20442;-56
2021/08/04 08:41:49;;;;;;;6.10;3.40;;;23.10;94.40;;;;;;5049518;28;20455;-56
2021/08/04 08:44:16;;;;;;;3.63;3.33;;;23.10;94.00;;;;;;5049663;28;20427;-54
2021/08/04 08:46:42;;;;;;;7.60;3.80;;;23.20;93.60;;;;;;5049598;28;20513;-55
2021/08/04 08:49:10;;;;;;;3.67;3.30;;;23.30;93.40;;;;;;5031212;28;20463;-54
2021/08/04 08:51:38;;;;;;;3.80;3.47;;;23.40;93.10;;;;;;5050012;28;20495;-54
2021/08/04 08:54:05;;;;;;;3.27;2.73;;;23.40;92.70;;;;;;5049287;28;20994;-55
2021/08/04 08:56:31;;;;;;;3.47;3.17;;;23.40;92.50;;;;;;5049845;28;20478;-54
2021/08/04 08:58:58;;;;;;;3.63;3.00;;;23.50;92.30;;;;;;5049519;28;20795;-53
2021/08/04 09:01:33;;;;;;;5.60;4.90;;;23.50;91.90;;;;;;5049516;28;20479;-54
2021/08/04 09:04:03;;;;;;;6.87;4.70;;;23.60;91.50;;;;;;5049584;28;20446;-54
2021/08/04 09:06:43;;;;;;;7.23;4.23;;;23.70;91.40;;;;;;5031543;28;20553;-54
2021/08/04 09:09:31;;;;;;;4.57;3.63;;;23.90;91.10;;;;;;5031681;28;20538;-55
2021/08/04 09:12:13;;;;;;;7.10;3.60;;;24.00;91.00;;;;;;5050846;28;20448;-55
2021/08/04 09:14:41;;;;;;;4.90;4.00;;;24.00;90.60;;;;;;5053524;28;20483;-54
2021/08/04 09:17:11;;;;;;;3.93;3.13;;;24.10;90.60;;;;;;5053183;28;20447;-54
2021/08/04 09:19:39;;;;;;;7.50;3.93;;;24.10;90.80;;;;;;5052847;28;20433;-55
2021/08/04 09:22:13;;;;;;;6.03;3.60;;;24.30;90.20;;;;;;5053495;28;20434;-54
2021/08/04 09:25:03;;;;;;;6.73;3.87;;;24.40;90.00;;;;;;5053296;28;20770;-54
2021/08/04 09:27:42;;;;;;;9.73;4.13;;;24.50;89.00;;;;;;5052778;28;20430;-54
2021/08/04 09:30:10;;;;;;;5.97;3.10;;;24.50;89.70;;;;;;5052735;28;20489;-53
2021/08/04 09:32:36;;;;;;;7.80;3.70;;;24.50;89.70;;;;;;5053594;28;20917;-54
2021/08/04 09:35:08;;;;;;;3.90;3.47;;;24.50;89.40;;;;;;5052817;28;20938;-55
2021/08/04 09:37:36;;;;;;;7.30;3.83;;;24.60;88.70;;;;;;5052797;28;20441;-56
2021/08/04 09:40:05;;;;;;;3.97;3.40;;;24.70;89.00;;;;;;5052460;28;21040;-55
2021/08/04 09:43:03;;;;;;;3.50;3.20;;;24.70;88.60;;;;;;5053152;28;20514;-54
2021/08/04 09:45:40;;;;;;;8.00;3.37;;;24.70;87.30;;;;;;5052959;28;20624;-56
2021/08/04 09:48:08;;;;;;;4.93;3.33;;;24.60;88.00;;;;;;5034558;28;20459;-55
2021/08/04 09:50:45;;;;;;;3.90;3.23;;;24.60;88.10;;;;;;5052706;28;20483;-55
2021/08/04 09:53:18;;;;;;;4.87;3.00;;;24.50;87.20;;;;;;5052857;28;20445;-56
2021/08/04 09:56:07;;;;;;;7.37;3.10;;;24.30;87.40;;;;;;5052508;28;20460;-53
2021/08/04 09:58:35;;;;;;;6.63;3.30;;;24.20;87.50;;;;;;5052192;28;20441;-56
2021/08/04 10:01:02;;;;;;;6.47;3.53;;;24.00;88.80;;;;;;5052042;28;21020;-55
2021/08/04 10:03:29;;;;;;;3.63;3.17;;;24.10;89.20;;;;;;5052295;28;20759;-53
2021/08/04 10:05:56;;;;;;;3.83;3.17;;;24.20;88.40;;;;;;5052289;28;20616;-54
2021/08/04 10:08:24;;;;;;;3.10;2.43;;;24.30;87.60;;;;;;5052012;28;20432;-54
2021/08/04 10:10:54;;;;;;;4.20;3.40;;;24.50;85.70;;;;;;5034005;28;20486;-54
2021/08/04 10:13:22;;;;;;;5.27;3.10;;;24.60;84.80;;;;;;5052082;28;20433;-54
2021/08/04 10:15:50;;;;;;;5.30;3.03;;;24.50;85.20;;;;;;5052399;28;20438;-55
2021/08/04 10:18:20;;;;;;;4.90;3.17;;;24.50;85.30;;;;;;5051822;28;20520;-56
2021/08/04 10:20:48;;;;;;;2.90;2.60;;;24.60;85.70;;;;;;5052133;28;20457;-55
2021/08/04 10:23:18;;;;;;;10.43;3.10;;;24.50;84.50;;;;;;5051062;28;20439;-55
2021/08/04 10:25:48;;;;;;;3.03;2.60;;;24.50;84.60;;;;;;5050793;28;20433;-56
2021/08/04 10:28:16;;;;;;;3.07;2.77;;;24.50;85.00;;;;;;5051440;28;20531;-55
2021/08/04 10:30:45;;;;;;;3.37;3.07;;;24.40;84.60;;;;;;5051757;28;20880;-56
2021/08/04 10:33:13;;;;;;;4.00;2.90;;;24.30;85.20;;;;;;5051468;28;20914;-56
2021/08/04 10:35:44;;;;;;;3.13;2.83;;;24.40;84.90;;;;;;5052043;28;20441;-55
2021/08/04 10:38:14;;;;;;;3.30;2.90;;;24.50;83.90;;;;;;5051046;28;20866;-54
2021/08/04 10:40:41;;;;;;;3.70;2.67;;;24.50;83.50;;;;;;5051727;28;20462;-55
2021/08/04 10:43:09;;;;;;;3.90;3.33;;;24.60;83.20;;;;;;5051361;28;20431;-56
2021/08/04 10:45:37;;;;;;;3.53;2.97;;;24.60;83.30;;;;;;5051195;28;20855;-55
2021/08/04 10:48:20;;;;;;;5.97;2.97;;;24.50;84.10;;;;;;5050875;28;21015;-56
2021/08/04 10:51:13;;;;;;;4.87;3.37;;;24.50;84.00;;;;;;5051367;28;20483;-56
2021/08/04 10:54:13;;;;;;;3.87;3.20;;;24.50;84.00;;;;;;5051490;28;20473;-55
2021/08/04 10:57:05;;;;;;;10.90;3.97;;;24.60;83.20;;;;;;5051364;28;20434;-55
2021/08/04 10:59:34;;;;;;;4.10;3.50;;;24.60;82.90;;;;;;5050836;28;21029;-56
2021/08/04 11:02:31;;;;;;;2.83;2.63;;;24.60;82.90;;;;;;5051534;28;20771;-55
2021/08/04 11:04:59;;;;;;;4.17;2.80;;;24.60;81.50;;;;;;5051199;28;20476;-55
2021/08/04 11:07:26;;;;;;;3.57;2.80;;;24.50;82.10;;;;;;5051167;28;20436;-54
2021/08/04 11:10:15;;;;;;;5.73;2.30;;;24.40;81.90;;;;;;5050342;28;20984;-54
2021/08/04 11:12:48;;;;;;;7.63;2.63;;;24.30;81.80;;;;;;5045287;28;20544;-53
2021/08/04 11:15:33;;;;;;;3.60;2.30;;;24.10;81.90;;;;;;5050641;28;20810;-54
2021/08/04 11:18:13;;;;;;;3.70;2.53;;;24.00;82.10;;;;;;5050932;28;20515;-56
2021/08/04 11:20:56;;;;;;;2.80;2.47;;;23.90;82.60;;;;;;5050673;28;20594;-54
2021/08/04 11:23:45;;;;;;;5.80;3.10;;;23.80;82.10;;;;;;5049722;28;20445;-54
2021/08/04 11:26:26;;;;;;;6.03;2.40;;;23.80;81.60;;;;;;5050783;28;20439;-54
2021/08/04 11:28:54;;;;;;;3.20;2.47;;;23.50;80.70;;;;;;5050922;28;20433;-54
2021/08/04 11:31:22;;;;;;;2.17;1.90;;;23.70;79.70;;;;;;5050235;28;20551;-54
2021/08/04 11:33:49;;;;;;;6.33;2.53;;;23.60;78.90;;;;;;5050035;28;20508;-55
2021/08/04 11:36:22;;;;;;;7.17;2.60;;;23.30;78.80;;;;;;5050443;28;20442;-55
2021/08/04 11:38:55;;;;;;;5.37;3.90;;;23.60;79.80;;;;;;5050375;28;20627;-54
2021/08/04 11:41:28;;;;;;;4.30;3.20;;;23.60;79.10;;;;;;5050361;28;20542;-54
2021/08/04 11:44:01;;;;;;;3.27;2.37;;;23.60;79.50;;;;;;5050623;28;20433;-55
2021/08/04 11:46:48;;;;;;;2.40;2.00;;;23.70;79.10;;;;;;5050248;28;20443;-54
2021/08/04 11:49:18;;;;;;;4.77;2.33;;;23.70;79.20;;;;;;5050241;28;20490;-54
2021/08/04 11:51:51;;;;;;;3.10;2.73;;;23.60;79.40;;;;;;5050690;28;20854;-54
2021/08/04 11:54:39;;;;;;;2.63;2.30;;;23.60;79.60;;;;;;5050286;28;20436;-56
2021/08/04 11:57:08;;;;;;;3.13;2.50;;;23.70;80.10;;;;;;5050690;28;20442;-53
2021/08/04 11:59:46;;;;;;;3.47;2.40;;;23.60;81.10;;;;;;5049428;28;20442;-54
2021/08/04 12:02:14;;;;;;;4.30;2.80;;;23.60;80.90;;;;;;5050111;28;20442;-54
2021/08/04 12:04:44;;;;;;;5.30;1.90;;;23.60;81.10;;;;;;5050117;28;20932;-54
2021/08/04 12:07:10;;;;;;;4.03;2.77;;;23.50;81.90;;;;;;5050246;28;20446;-54
2021/08/04 12:09:38;;;;;;;5.03;2.90;;;23.50;81.60;;;;;;5050109;28;20492;-54
2021/08/04 12:12:08;;;;;;;4.17;2.17;;;23.60;81.30;;;;;;5050018;28;20511;-54
2021/08/04 12:14:35;;;;;;;3.70;2.80;;;23.50;81.10;;;;;;5050125;28;20932;-57
2021/08/04 12:17:05;;;;;;;4.00;3.60;;;23.40;80.80;;;;;;5050277;28;20441;-55
2021/08/04 12:19:40;;;;;;;2.93;2.60;;;23.60;81.30;;;;;;5050435;28;20444;-55
2021/08/04 12:22:09;;;;;;;3.30;2.67;;;23.20;80.90;;;;;;5049958;28;20442;-56
2021/08/04 12:24:44;;;;;;;20.73;18.60;;;23.20;81.80;;;;;;5049730;28;20431;-56
2021/08/04 12:27:12;;;;;;;7.07;3.00;;;23.20;82.00;;;;;;5049932;28;20454;-55
2021/08/04 12:29:38;;;;;;;3.50;2.53;;;23.20;82.40;;;;;;5049836;28;20431;-54
2021/08/04 12:32:14;;;;;;;2.70;2.13;;;23.30;82.60;;;;;;5050255;28;20503;-55
2021/08/04 12:34:56;;;;;;;2.50;2.30;;;23.30;81.30;;;;;;5050018;28;20437;-56
2021/08/04 12:37:24;;;;;;;4.90;2.27;;;23.20;82.20;;;;;;5049755;28;20905;-55
2021/08/04 12:39:51;;;;;;;4.10;2.20;;;23.20;82.60;;;;;;5049530;28;20441;-54
2021/08/04 12:42:19;;;;;;;6.50;2.50;;;23.20;82.60;;;;;;5050454;28;20432;-54
2021/08/04 12:44:46;;;;;;;2.40;2.20;;;23.20;82.30;;;;;;5049939;28;20447;-54
2021/08/04 12:47:15;;;;;;;3.10;2.30;;;23.30;81.50;;;;;;5051931;28;20431;-55
2021/08/04 12:49:43;;;;;;;2.60;2.40;;;23.30;80.20;;;;;;5053228;28;20439;-55
2021/08/04 12:52:12;;;;;;;2.40;1.93;;;23.30;80.20;;;;;;5054013;28;20562;-55
2021/08/04 12:54:39;;;;;;;3.53;2.30;;;23.30;79.80;;;;;;5053598;28;20439;-55
2021/08/04 12:57:25;;;;;;;4.23;2.80;;;23.30;79.70;;;;;;5053496;28;20588;-56